createdAt,value
2023-07-03T00:00:08.197Z,3.05
2023-07-03T00:03:15.018Z,3.07
2023-07-03T00:06:17.126Z,3.13
2023-07-03T00:09:19.261Z,2.78
2023-07-03T00:12:21.655Z,3.20
2023-07-03T00:15:23.762Z,2.85
2023-07-03T00:18:26.076Z,2.67
2023-07-03T00:21:28.561Z,3.03
2023-07-03T00:24:31.268Z,3.03
2023-07-03T00:27:33.980Z,2.90
2023-07-03T00:30:36.119Z,3.35
2023-07-03T00:33:38.173Z,3.20
2023-07-03T00:36:40.229Z,3.10
2023-07-03T00:39:42.646Z,3.00
2023-07-03T00:42:44.837Z,2.75
2023-07-03T00:45:47.900Z,3.30
2023-07-03T00:48:50.438Z,3.40
2023-07-03T00:51:56.060Z,3.53
2023-07-03T00:54:59.139Z,3.60
2023-07-03T00:58:01.690Z,3.63
2023-07-03T01:01:11.639Z,3.78
2023-07-03T01:04:15.118Z,4.17
2023-07-03T01:07:19.852Z,3.07
2023-07-03T01:10:22.974Z,3.63
2023-07-03T01:13:25.250Z,3.22
2023-07-03T01:16:27.712Z,3.80
2023-07-03T01:19:32.540Z,3.27
2023-07-03T01:22:44.082Z,3.53
2023-07-03T01:25:46.148Z,3.45
2023-07-03T01:28:51.370Z,4.18
2023-07-03T01:31:54.454Z,3.33
2023-07-03T01:34:56.807Z,3.50
2023-07-03T01:38:00.031Z,3.80
2023-07-03T01:41:03.260Z,3.78
2023-07-03T01:44:05.634Z,3.35
2023-07-03T01:47:09.020Z,3.50
2023-07-03T01:50:15.778Z,3.87
2023-07-03T01:53:19.216Z,3.80
2023-07-03T01:56:29.035Z,3.47
2023-07-03T01:59:31.148Z,3.65
2023-07-03T02:02:33.818Z,3.55
2023-07-03T02:05:36.015Z,3.73
2023-07-03T02:08:38.213Z,3.73
2023-07-03T02:11:40.968Z,3.90
2023-07-03T02:14:48.625Z,3.55
2023-07-03T02:17:55.617Z,3.60
2023-07-03T02:21:01.690Z,3.97
2023-07-03T02:24:05.317Z,3.83
2023-07-03T02:27:07.963Z,4.18
2023-07-03T02:30:10.702Z,3.63
2023-07-03T02:33:12.942Z,4.65
2023-07-03T02:36:15.471Z,4.53
2023-07-03T02:39:18.494Z,3.83
2023-07-03T02:42:20.720Z,3.70
2023-07-03T02:45:23.157Z,3.90
2023-07-03T02:48:26.293Z,3.67
2023-07-03T02:51:28.891Z,4.40
2023-07-03T02:54:35.059Z,4.10
2023-07-03T02:57:37.921Z,4.20
2023-07-03T03:00:43.054Z,4.20
2023-07-03T03:03:45.737Z,3.65
2023-07-03T03:06:48.144Z,4.03
2023-07-03T03:09:50.428Z,3.97
2023-07-03T03:12:53.700Z,3.55
2023-07-03T03:15:56.069Z,4.45
2023-07-03T03:18:58.753Z,4.20
2023-07-03T03:22:01.438Z,4.43
2023-07-03T03:25:10.405Z,3.93
2023-07-03T03:28:12.601Z,4.22
2023-07-03T03:31:17.107Z,5.22
2023-07-03T03:34:26.890Z,4.97
2023-07-03T03:37:28.981Z,4.40
2023-07-03T03:40:32.910Z,4.63
2023-07-03T03:43:36.117Z,4.38
2023-07-03T03:46:38.987Z,4.50
2023-07-03T03:49:41.748Z,4.10
2023-07-03T03:52:44.105Z,4.40
2023-07-03T03:55:49.319Z,4.40
2023-07-03T03:58:52.539Z,4.43
2023-07-03T04:01:54.722Z,4.22
2023-07-03T04:04:56.918Z,3.83
2023-07-03T04:07:59.389Z,4.10
2023-07-03T04:11:01.647Z,4.00
2023-07-03T04:14:03.766Z,4.07
2023-07-03T04:17:06.629Z,4.10
2023-07-03T04:20:09.212Z,4.03
2023-07-03T04:23:11.637Z,4.60
2023-07-03T04:26:13.679Z,4.50
2023-07-03T04:29:15.737Z,4.40
2023-07-03T04:32:18.432Z,4.30
2023-07-03T04:35:20.629Z,4.20
2023-07-03T04:38:25.307Z,4.20
2023-07-03T04:41:30.537Z,4.07
2023-07-03T04:44:34.595Z,4.63
2023-07-03T04:47:39.625Z,5.32
2023-07-03T04:50:41.668Z,3.92
2023-07-03T04:53:43.845Z,4.27
2023-07-03T04:56:46.151Z,4.57
2023-07-03T04:59:49.884Z,4.75
2023-07-03T05:02:52.652Z,3.92
2023-07-03T05:05:54.755Z,3.78
2023-07-03T05:08:57.212Z,3.80
2023-07-03T05:11:59.952Z,3.47
2023-07-03T05:15:02.053Z,4.13
2023-07-03T05:18:04.769Z,5.20
2023-07-03T05:21:07.523Z,4.00
2023-07-03T05:24:10.126Z,4.20
2023-07-03T05:27:12.274Z,5.00
2023-07-03T05:30:14.945Z,4.07
2023-07-03T05:33:17.051Z,3.55
2023-07-03T05:36:19.337Z,5.07
2023-07-03T05:39:21.891Z,7.23
2023-07-03T05:42:24.150Z,5.70
2023-07-03T05:45:26.501Z,5.25
2023-07-03T05:48:28.661Z,5.13
2023-07-03T05:51:30.679Z,3.42
2023-07-03T05:54:32.848Z,3.47
2023-07-03T05:57:35.320Z,3.40
2023-07-03T06:00:38.187Z,3.88
2023-07-03T06:03:44.670Z,3.97
2023-07-03T06:06:47.293Z,3.50
2023-07-03T06:09:49.760Z,3.63
2023-07-03T06:12:51.836Z,3.30
2023-07-03T06:15:55.041Z,3.53
2023-07-03T06:19:04.660Z,4.13
2023-07-03T06:22:08.280Z,3.75
2023-07-03T06:25:11.135Z,3.53
2023-07-03T06:28:13.278Z,3.57
2023-07-03T06:31:15.898Z,3.90
2023-07-03T06:34:18.391Z,3.42
2023-07-03T06:37:20.971Z,4.30
2023-07-03T06:40:23.568Z,3.13
2023-07-03T06:43:26.386Z,3.60
2023-07-03T06:46:28.453Z,3.53
2023-07-03T06:49:30.950Z,3.78
2023-07-03T06:52:35.059Z,3.88
2023-07-03T06:55:37.268Z,3.47
2023-07-03T06:58:39.432Z,3.20
2023-07-03T07:01:42.086Z,3.30
2023-07-03T07:04:45.416Z,3.30
2023-07-03T07:07:47.615Z,3.10
2023-07-03T07:10:49.841Z,2.93
2023-07-03T07:13:52.411Z,2.77
2023-07-03T07:16:54.924Z,2.63
2023-07-03T07:19:59.164Z,2.67
2023-07-03T07:23:01.714Z,2.80
2023-07-03T07:26:03.996Z,3.20
2023-07-03T07:29:06.261Z,3.00
2023-07-03T07:32:09.927Z,2.90
2023-07-03T07:35:12.081Z,3.25
2023-07-03T07:38:14.656Z,2.67
2023-07-03T07:41:16.684Z,3.20
2023-07-03T07:44:19.449Z,4.33
2023-07-03T07:47:21.547Z,3.42
2023-07-03T07:50:24.450Z,3.80
2023-07-03T07:53:27.422Z,4.43
2023-07-03T07:56:31.760Z,4.47
2023-07-03T07:59:36.472Z,3.80
2023-07-03T08:02:38.704Z,4.65
2023-07-03T08:05:40.918Z,4.10
2023-07-03T08:08:44.006Z,3.70
2023-07-03T08:11:46.901Z,4.57
2023-07-03T08:14:49.372Z,4.17
2023-07-03T08:17:51.665Z,4.53
2023-07-03T08:20:53.951Z,3.85
2023-07-03T08:23:56.450Z,4.70
2023-07-03T08:26:58.568Z,4.63
2023-07-03T08:30:00.682Z,4.40
2023-07-03T08:33:03.800Z,4.93
2023-07-03T08:39:12.819Z,4.32
2023-07-03T08:42:23.309Z,4.80
2023-07-03T08:45:30.308Z,4.83
2023-07-03T08:48:33.707Z,5.15
2023-07-03T08:51:36.859Z,5.22
2023-07-03T08:54:39.373Z,5.35
2023-07-03T08:57:41.509Z,5.43
2023-07-03T09:00:49.565Z,4.87
2023-07-03T09:04:01.084Z,5.22
2023-07-03T09:07:04.290Z,5.28
2023-07-03T09:10:09.210Z,5.10
2023-07-03T09:13:31.992Z,5.40
2023-07-03T09:16:34.278Z,5.20
2023-07-03T09:19:38.899Z,5.53
2023-07-03T09:22:51.788Z,5.60
2023-07-03T09:26:04.150Z,5.45
2023-07-03T09:29:07.883Z,5.60
2023-07-03T09:32:14.011Z,5.40
2023-07-03T09:35:17.662Z,5.55
2023-07-03T09:38:24.224Z,5.65
2023-07-03T09:41:30.985Z,5.70
2023-07-03T09:44:33.565Z,5.63
2023-07-03T09:47:36.088Z,6.40
2023-07-03T09:50:40.097Z,5.72
2023-07-03T09:53:45.849Z,5.72
2023-07-03T09:56:48.033Z,5.85
2023-07-03T09:59:50.506Z,6.13
2023-07-03T10:12:29.945Z,5.90
2023-07-03T10:15:36.068Z,6.67
2023-07-03T10:18:39.072Z,5.90
2023-07-03T10:21:41.663Z,6.30
2023-07-03T10:24:43.935Z,6.78
2023-07-03T10:27:46.359Z,6.57
2023-07-03T10:30:49.574Z,6.63
2023-07-03T10:33:54.392Z,6.17
2023-07-03T10:37:00.815Z,6.95
2023-07-03T10:40:10.857Z,7.93
2023-07-03T10:43:12.886Z,6.18
2023-07-03T10:46:18.520Z,6.90
2023-07-03T10:49:25.286Z,7.07
2023-07-03T10:52:33.463Z,6.82
2023-07-03T10:55:47.606Z,6.75
2023-07-03T10:59:03.231Z,6.78
2023-07-03T11:02:24.221Z,7.50
2023-07-03T11:05:45.414Z,7.07
2023-07-03T11:08:47.893Z,7.00
2023-07-03T11:11:58.979Z,6.70
2023-07-03T11:15:06.477Z,7.28
2023-07-03T11:24:54.273Z,7.53
2023-07-03T11:28:12.619Z,7.20
2023-07-03T11:31:15.614Z,7.10
2023-07-03T11:41:02.288Z,7.20
2023-07-03T11:44:16.083Z,7.63
2023-07-03T11:47:26.080Z,8.10
2023-07-03T11:50:34.785Z,7.47
2023-07-03T11:53:37.918Z,7.40
2023-07-03T11:56:45.487Z,8.00
2023-07-03T11:59:47.853Z,7.28
2023-07-03T12:02:50.096Z,7.28
2023-07-03T12:05:53.603Z,7.28
2023-07-03T12:08:56.221Z,7.73
2023-07-03T12:12:01.398Z,6.85
2023-07-03T12:15:11.813Z,6.68
2023-07-03T12:18:15.111Z,6.93
2023-07-03T12:21:17.538Z,7.50
2023-07-03T12:24:20.725Z,7.70
2023-07-03T12:27:23.858Z,6.88
2023-07-03T12:30:26.753Z,6.63
2023-07-03T12:33:29.241Z,6.82
2023-07-03T12:36:34.135Z,7.18
2023-07-03T12:39:37.087Z,6.23
2023-07-03T12:42:39.537Z,6.10
2023-07-03T12:45:41.740Z,6.38
2023-07-03T12:48:44.041Z,5.80
2023-07-03T12:51:55.668Z,6.35
2023-07-03T12:55:13.883Z,5.80
2023-07-03T12:58:17.644Z,6.68
2023-07-03T13:01:20.329Z,5.30
2023-07-03T13:04:29.340Z,6.15
2023-07-03T13:07:32.089Z,6.63
2023-07-03T13:10:34.199Z,6.07
2023-07-03T13:13:36.232Z,7.40
2023-07-03T13:16:38.419Z,7.10
2023-07-03T13:19:40.572Z,6.95
2023-07-03T13:22:49.536Z,6.30
2023-07-03T13:25:53.851Z,6.43
2023-07-03T13:28:59.667Z,6.47
2023-07-03T13:32:18.066Z,6.25
2023-07-03T13:35:28.146Z,6.22
2023-07-03T13:38:31.194Z,6.27
2023-07-03T13:41:33.723Z,6.93
2023-07-03T13:44:36.606Z,6.90
2023-07-03T13:47:39.136Z,6.72
2023-07-03T13:50:41.376Z,6.50
2023-07-03T13:53:43.618Z,6.57
2023-07-03T13:56:45.896Z,6.43
2023-07-03T13:59:47.953Z,7.50
2023-07-03T14:02:50.425Z,7.45
2023-07-03T14:05:53.101Z,6.70
2023-07-03T14:08:56.627Z,7.27
2023-07-03T14:11:58.673Z,6.83
2023-07-03T14:15:01.258Z,6.78
2023-07-03T14:18:03.937Z,6.70
2023-07-03T14:21:06.375Z,7.32
2023-07-03T14:24:08.474Z,7.20
2023-07-03T14:27:10.580Z,7.77
2023-07-03T14:30:12.868Z,7.93
2023-07-03T14:33:15.206Z,7.00
2023-07-03T14:36:17.530Z,7.55
2023-07-03T14:39:19.970Z,7.10
2023-07-03T14:42:22.446Z,7.30
2023-07-03T14:45:24.434Z,7.32
2023-07-03T14:48:26.654Z,7.28
2023-07-03T14:51:29.096Z,8.05
2023-07-03T14:54:31.316Z,7.90
2023-07-03T14:57:33.591Z,7.23
2023-07-03T15:00:35.722Z,7.15
2023-07-03T15:03:38.460Z,7.80
2023-07-03T15:06:41.081Z,7.05
2023-07-03T15:09:43.143Z,7.60
2023-07-03T15:12:48.215Z,8.60
2023-07-03T15:15:51.094Z,7.18
2023-07-03T15:18:53.562Z,6.47
2023-07-03T15:21:55.834Z,6.53
2023-07-03T15:24:58.182Z,6.93
2023-07-03T15:28:00.220Z,7.10
2023-07-03T15:31:03.257Z,7.05
2023-07-03T15:34:06.021Z,7.47
2023-07-03T15:37:08.142Z,7.20
2023-07-03T15:40:10.851Z,7.17
2023-07-03T15:43:13.028Z,7.60
2023-07-03T15:46:16.610Z,7.07
2023-07-03T15:49:23.782Z,6.75
2023-07-03T15:52:25.852Z,6.78
2023-07-03T15:55:27.967Z,7.13
2023-07-03T15:58:31.395Z,6.57
2023-07-03T16:01:33.513Z,6.47
2023-07-03T16:04:35.676Z,7.05
2023-07-03T16:07:37.814Z,6.75
2023-07-03T16:10:39.835Z,6.67
2023-07-03T16:13:42.458Z,6.67
2023-07-03T16:16:44.779Z,7.03
2023-07-03T16:20:10.075Z,6.70
2023-07-03T16:23:12.607Z,6.35
2023-07-03T16:26:15.444Z,7.37
2023-07-03T16:29:18.053Z,6.73
2023-07-03T16:32:20.152Z,7.18
2023-07-03T16:35:22.181Z,7.32
2023-07-03T16:38:24.183Z,6.65
2023-07-03T16:41:29.075Z,6.63
2023-07-03T16:44:31.089Z,6.50
2023-07-03T16:47:33.577Z,6.65
2023-07-03T16:50:36.243Z,6.35
2023-07-03T16:53:39.385Z,6.43
2023-07-03T16:56:41.833Z,7.43
2023-07-03T16:59:44.390Z,6.80
2023-07-03T17:02:46.973Z,7.90
2023-07-03T17:05:49.489Z,7.35
2023-07-03T17:08:52.178Z,7.50
2023-07-03T17:11:54.406Z,8.00
2023-07-03T17:14:56.965Z,6.90
2023-07-03T17:17:59.787Z,6.35
2023-07-03T17:21:02.252Z,6.88
2023-07-03T17:24:04.513Z,7.05
2023-07-03T17:27:06.631Z,6.70
2023-07-03T17:30:09.436Z,7.13
2023-07-03T17:33:11.508Z,6.40
2023-07-03T17:36:13.708Z,7.25
2023-07-03T17:39:15.814Z,6.95
2023-07-03T17:42:18.358Z,6.80
2023-07-03T17:45:20.600Z,6.70
2023-07-03T17:48:22.829Z,6.72
2023-07-03T17:51:26.648Z,6.57
2023-07-03T17:54:29.669Z,6.82
2023-07-03T17:57:32.610Z,8.00
2023-07-03T18:00:35.598Z,6.73
2023-07-03T18:03:38.281Z,7.30
2023-07-03T18:06:41.134Z,7.85
2023-07-03T18:09:43.633Z,7.35
2023-07-03T18:12:45.885Z,7.23
2023-07-03T18:15:52.327Z,7.43
2023-07-03T18:18:54.957Z,6.90
2023-07-03T18:21:57.239Z,7.53
2023-07-03T18:25:02.824Z,7.95
2023-07-03T18:28:05.519Z,6.70
2023-07-03T18:31:08.147Z,8.23
2023-07-03T18:34:10.522Z,6.93
2023-07-03T18:37:12.632Z,6.85
2023-07-03T18:40:15.306Z,7.13
2023-07-03T18:43:18.151Z,7.37
2023-07-03T18:46:20.748Z,7.23
2023-07-03T18:49:22.846Z,8.00
2023-07-03T18:52:25.463Z,7.20
2023-07-03T18:55:27.538Z,7.30
2023-07-03T18:58:29.618Z,7.90
2023-07-03T19:01:32.602Z,7.30
2023-07-03T19:04:35.211Z,7.85
2023-07-03T19:07:37.321Z,7.30
2023-07-03T19:10:39.667Z,6.47
2023-07-03T19:13:41.898Z,6.80
2023-07-03T19:16:44.664Z,7.87
2023-07-03T19:19:47.018Z,7.35
2023-07-03T19:22:49.246Z,6.72
2023-07-03T19:25:54.946Z,6.68
2023-07-03T19:28:57.159Z,6.53
2023-07-03T19:31:59.728Z,6.87
2023-07-03T19:35:02.242Z,7.10
2023-07-03T19:38:04.327Z,7.22
2023-07-03T19:41:06.472Z,6.97
2023-07-03T19:44:08.854Z,6.70
2023-07-03T19:47:11.759Z,6.70
2023-07-03T19:50:14.051Z,7.18
2023-07-03T19:53:16.288Z,7.00
2023-07-03T19:56:19.038Z,7.30
2023-07-03T19:59:22.797Z,6.60
2023-07-03T20:02:25.527Z,7.00
2023-07-03T20:05:27.917Z,7.05
2023-07-03T20:08:30.232Z,6.60
2023-07-03T20:11:32.388Z,7.32
2023-07-03T20:14:34.829Z,6.67
2023-07-03T20:17:40.218Z,7.10
2023-07-03T20:20:42.741Z,6.75
2023-07-03T20:23:46.274Z,6.50
2023-07-03T20:26:48.309Z,7.22
2023-07-03T20:29:50.852Z,6.97
2023-07-03T20:32:53.573Z,7.67
2023-07-03T20:35:57.861Z,6.90
2023-07-03T20:39:00.138Z,7.32
2023-07-03T20:42:02.312Z,7.10
2023-07-03T20:45:05.197Z,7.10
2023-07-03T20:48:08.594Z,7.17
2023-07-03T20:51:13.687Z,7.22
2023-07-03T20:54:34.648Z,7.40
2023-07-03T20:57:37.229Z,6.78
2023-07-03T21:00:39.699Z,7.73
2023-07-03T21:03:42.913Z,7.23
2023-07-03T21:06:45.802Z,6.43
2023-07-03T21:09:48.281Z,6.78
2023-07-03T21:12:50.616Z,7.45
2023-07-03T21:15:52.993Z,7.77
2023-07-03T21:18:55.271Z,7.00
2023-07-03T21:22:03.623Z,7.05
2023-07-03T21:25:05.799Z,7.03
2023-07-03T21:28:07.831Z,7.00
2023-07-03T21:31:11.730Z,7.17
2023-07-03T21:34:14.176Z,6.70
2023-07-03T21:37:17.033Z,7.57
2023-07-03T21:40:19.195Z,7.72
2023-07-03T21:43:21.351Z,7.78
2023-07-03T21:46:23.742Z,7.60
2023-07-03T21:49:25.924Z,7.83
2023-07-03T21:52:28.329Z,8.95
2023-07-03T21:55:30.509Z,7.60
2023-07-03T21:58:32.719Z,7.78
2023-07-03T22:01:35.849Z,8.53
2023-07-03T22:04:38.403Z,8.07
2023-07-03T22:07:41.079Z,6.72
2023-07-03T22:10:43.344Z,7.30
2023-07-03T22:13:45.697Z,7.53
2023-07-03T22:16:47.939Z,7.93
2023-07-03T22:19:51.070Z,7.20
2023-07-03T22:22:53.229Z,7.50
2023-07-03T22:25:55.918Z,7.63
2023-07-03T22:28:58.335Z,8.00
2023-07-03T22:32:00.471Z,7.63
2023-07-03T22:35:02.820Z,8.20
2023-07-03T22:38:04.833Z,7.03
2023-07-03T22:41:07.235Z,7.10
2023-07-03T22:44:09.286Z,7.53
2023-07-03T22:47:11.797Z,7.37
2023-07-03T22:50:13.998Z,7.10
2023-07-03T22:53:16.095Z,7.10
2023-07-03T22:56:18.376Z,7.20
2023-07-03T22:59:20.488Z,8.07
2023-07-03T23:02:22.544Z,8.63
2023-07-03T23:05:25.208Z,7.50
2023-07-03T23:08:27.469Z,7.47
2023-07-03T23:11:29.902Z,7.93
2023-07-03T23:14:32.002Z,7.57
2023-07-03T23:17:34.363Z,7.57
2023-07-03T23:20:36.457Z,7.27
2023-07-03T23:23:39.201Z,7.68
2023-07-03T23:26:41.371Z,8.13
2023-07-03T23:29:43.814Z,7.53
2023-07-03T23:32:45.994Z,7.27
2023-07-03T23:35:49.220Z,8.10
2023-07-03T23:38:51.792Z,7.22
2023-07-03T23:41:54.285Z,7.43
2023-07-03T23:44:56.748Z,7.15
2023-07-03T23:47:59.404Z,8.10
2023-07-03T23:51:04.049Z,7.20
2023-07-03T23:54:06.987Z,7.93
2023-07-03T23:57:09.763Z,7.63
